Time;durP1;ratioP1;P1;durP2;ratioP2;P2;SDS_P1;SDS_P2;PMS_P1;PMS_P2;Temp;Humidity;BMP_temperature;BMP_pressure;BME280_temperature;BME280_humidity;BME280_pressure;Samples;Min_cycle;Max_cycle;Signal;HPM_P1;HPM_P2
2023/02/26 00:00:14;;;;;;;3.33;1.70;;;;;;;-3.43;100.00;92230.72;2509748;23;20007;-84
2023/02/26 00:01:18;;;;;;;3.45;1.67;;;;;;;-3.53;100.00;92227.94;2533909;23;20179;-86
2023/02/26 00:02:19;;;;;;;3.88;1.75;;;;;;;-3.61;100.00;92230.44;2533959;23;20002;-85
2023/02/26 00:03:21;;;;;;;2.88;1.40;;;;;;;-3.63;100.00;92235.25;2533203;23;20013;-86
2023/02/26 00:04:21;;;;;;;3.13;1.80;;;;;;;-3.58;100.00;92240.19;2533242;23;20558;-83
2023/02/26 00:05:22;;;;;;;4.60;1.45;;;;;;;-3.51;100.00;92230.94;2521092;23;20052;-85
2023/02/26 00:06:25;;;;;;;6.70;2.40;;;;;;;-3.51;100.00;92231.72;2521262;23;20007;-85
2023/02/26 00:07:28;;;;;;;4.43;1.70;;;;;;;-3.52;100.00;92230.19;2521247;23;20383;-83
2023/02/26 00:08:30;;;;;;;3.97;2.00;;;;;;;-3.42;100.00;92227.03;2533601;23;20061;-85
2023/02/26 00:09:31;;;;;;;4.25;1.83;;;;;;;-3.40;100.00;92231.88;2533541;23;20045;-84
2023/02/26 00:10:32;;;;;;;4.18;1.80;;;;;;;-3.41;100.00;92223.31;2533254;23;20393;-85
2023/02/26 00:11:33;;;;;;;4.05;1.83;;;;;;;-3.40;100.00;92224.06;2521311;23;20002;-83
2023/02/26 00:12:35;;;;;;;4.60;1.73;;;;;;;-3.44;100.00;92226.59;2509266;23;20308;-85
2023/02/26 00:13:37;;;;;;;2.30;1.85;;;;;;;-3.55;100.00;92223.09;2533324;23;20114;-85
2023/02/26 00:14:38;;;;;;;3.78;1.70;;;;;;;-3.57;100.00;92220.81;2533103;23;20014;-84
2023/02/26 00:15:39;;;;;;;3.92;1.50;;;;;;;-3.47;100.00;92226.53;2509058;23;20470;-84
2023/02/26 00:16:49;;;;;;;4.25;1.60;;;;;;;-3.49;100.00;92224.28;2509284;23;20010;-86
2023/02/26 00:17:56;;;;;;;2.30;1.35;;;;;;;-3.37;100.00;92225.97;2524651;23;20361;-84
2023/02/26 00:18:59;;;;;;;3.58;1.60;;;;;;;-3.09;100.00;92226.38;2522136;23;20493;-83
2023/02/26 00:20:02;;;;;;;2.55;1.52;;;;;;;-3.14;100.00;92226.69;2522062;23;20037;-85
2023/02/26 00:21:04;;;;;;;3.55;1.70;;;;;;;-3.21;100.00;92226.56;2521288;23;20624;-84
2023/02/26 00:22:05;;;;;;;2.65;1.42;;;;;;;-3.36;100.00;92230.09;2521132;23;20006;-83
2023/02/26 00:23:10;;;;;;;2.65;1.60;;;;;;;-3.41;100.00;92235.63;2533024;23;20020;-86
2023/02/26 00:24:11;;;;;;;3.05;1.67;;;;;;;-3.27;100.00;92237.69;2533201;23;20302;-84
2023/02/26 00:25:12;;;;;;;4.03;1.60;;;;;;;-3.33;100.00;92229.41;2521179;23;20013;-84
2023/02/26 00:26:14;;;;;;;3.58;1.70;;;;;;;-3.26;100.00;92228.72;2521011;23;20010;-85
2023/02/26 00:27:15;;;;;;;3.75;1.73;;;;;;;-3.21;100.00;92241.50;2508977;23;20443;-84
2023/02/26 00:28:16;;;;;;;4.95;1.98;;;;;;;-3.18;100.00;92238.19;2509211;23;20014;-86
2023/02/26 00:29:17;;;;;;;2.90;1.60;;;;;;;-3.32;100.00;92239.50;2509137;23;20045;-85
2023/02/26 00:30:18;;;;;;;3.75;1.90;;;;;;;-3.39;100.00;92238.63;2509337;23;20014;-84
2023/02/26 00:31:23;;;;;;;3.33;1.80;;;;;;;-3.40;100.00;92237.88;2509431;23;20099;-84
2023/02/26 00:32:24;;;;;;;2.72;1.52;;;;;;;-3.42;100.00;92239.34;2522523;23;20009;-83
2023/02/26 00:33:26;;;;;;;3.35;1.85;;;;;;;-3.41;100.00;92238.22;2532992;23;20033;-84
2023/02/26 00:34:27;;;;;;;5.43;1.55;;;;;;;-3.51;100.00;92241.41;2521188;23;20056;-84
2023/02/26 00:35:28;;;;;;;3.25;2.00;;;;;;;-3.51;100.00;92228.34;2521354;23;20006;-84
2023/02/26 00:37:03;;;;;;;7.47;1.95;;;;;;;-3.34;100.00;92233.09;2520987;23;20011;-85
2023/02/26 00:38:08;;;;;;;3.50;1.50;;;;;;;-3.40;100.00;92237.13;2534563;23;20005;-85
2023/02/26 00:39:39;;;;;;;2.40;1.85;;;;;;;-3.47;100.00;92237.00;2521548;23;20002;-84
2023/02/26 00:40:52;;;;;;;4.45;1.73;;;;;;;-3.53;100.00;92241.00;2521320;23;20037;-84
2023/02/26 00:41:53;;;;;;;2.97;1.55;;;;;;;-3.43;100.00;92235.19;2513656;23;20074;-85
2023/02/26 00:42:54;;;;;;;4.22;1.60;;;;;;;-3.37;100.00;92228.59;2509153;23;20065;-87
2023/02/26 00:43:56;;;;;;;3.85;2.03;;;;;;;-3.35;100.00;92234.19;2520422;23;20531;-85
2023/02/26 00:44:57;;;;;;;1.77;1.30;;;;;;;-3.32;100.00;92233.50;2509401;23;20184;-83
2023/02/26 00:46:02;;;;;;;4.15;1.50;;;;;;;-3.36;100.00;92238.69;2532608;23;20009;-86
2023/02/26 00:47:44;;;;;;;4.05;1.70;;;;;;;-3.32;100.00;92233.50;2510550;23;20010;-84
2023/02/26 00:49:21;;;;;;;3.42;1.70;;;;;;;-3.51;100.00;92236.19;2473311;23;20058;-85
2023/02/26 00:50:24;;;;;;;3.13;1.60;;;;;;;-3.51;100.00;92231.72;2487690;23;20195;-85
2023/02/26 00:51:50;;;;;;;2.42;1.70;;;;;;;-3.47;100.00;92229.16;2521116;23;20021;-84
2023/02/26 00:53:01;;;;;;;2.50;1.90;;;;;;;-3.50;100.00;92232.47;2538066;23;20013;-84
2023/02/26 00:54:11;;;;;;;2.25;1.73;;;;;;;-3.50;100.00;92232.47;2532709;23;20094;-85
2023/02/26 00:55:12;;;;;;;3.95;1.80;;;;;;;-3.48;100.00;92225.03;2512912;23;20038;-87
2023/02/26 00:56:13;;;;;;;2.45;1.63;;;;;;;-3.60;100.00;92236.41;2520762;23;20089;-86
2023/02/26 00:57:14;;;;;;;2.63;1.63;;;;;;;-3.60;100.00;92233.81;2521222;23;20006;-84
2023/02/26 00:58:15;;;;;;;2.65;1.73;;;;;;;-3.49;100.00;92231.38;2533062;23;20009;-86
2023/02/26 00:59:17;;;;;;;2.92;1.60;;;;;;;-3.45;100.00;92238.16;2532364;23;20033;-85
2023/02/26 01:00:19;;;;;;;5.28;1.75;;;;;;;-3.50;100.00;92245.53;2509563;23;20371;-84
2023/02/26 01:01:20;;;;;;;6.88;2.20;;;;;;;-3.55;100.00;92236.16;2509721;23;20089;-87
2023/02/26 01:02:26;;;;;;;3.90;1.80;;;;;;;-3.66;100.00;92228.13;2532894;23;20013;-83
2023/02/26 01:03:31;;;;;;;4.68;1.88;;;;;;;-3.62;100.00;92234.16;2521949;23;20007;-85
2023/02/26 01:04:32;;;;;;;2.53;2.10;;;;;;;-3.58;100.00;92227.13;2510263;23;20025;-83
2023/02/26 01:05:33;;;;;;;4.40;1.95;;;;;;;-3.51;100.00;92225.72;2521009;23;20406;-85
2023/02/26 01:06:42;;;;;;;3.67;2.00;;;;;;;-3.43;100.00;92222.13;2533127;23;20005;-86
2023/02/26 01:08:00;;;;;;;4.47;1.80;;;;;;;-3.41;100.00;92227.78;2532818;23;20021;-87
2023/02/26 01:09:08;;;;;;;4.55;1.90;;;;;;;-3.49;100.00;92229.50;2515970;23;20097;-84
2023/02/26 01:10:11;;;;;;;3.85;2.15;;;;;;;-3.34;100.00;92225.25;2512202;23;20007;-86
2023/02/26 01:11:12;;;;;;;3.08;1.90;;;;;;;-3.50;100.00;92230.63;2498244;23;20018;-85
2023/02/26 01:12:16;;;;;;;2.53;1.85;;;;;;;-3.45;100.00;92229.56;2498157;23;20018;-86
2023/02/26 01:13:17;;;;;;;5.05;2.05;;;;;;;-3.52;100.00;92227.59;2521245;23;20161;-84
2023/02/26 01:14:19;;;;;;;4.07;2.10;;;;;;;-3.55;100.00;92226.44;2508959;23;20330;-84
2023/02/26 01:15:20;;;;;;;3.97;2.10;;;;;;;-3.52;100.00;92234.69;2509473;23;20011;-83
2023/02/26 01:16:26;;;;;;;5.38;1.85;;;;;;;-3.45;100.00;92229.56;2497517;23;20007;-84
2023/02/26 01:17:40;;;;;;;4.22;1.70;;;;;;;-3.40;100.00;92221.44;2500247;23;20007;-85
2023/02/26 01:18:51;;;;;;;4.05;2.03;;;;;;;-3.32;100.00;92225.69;2526682;23;20002;-84
2023/02/26 01:19:59;;;;;;;4.43;2.50;;;;;;;-3.25;100.00;92228.38;2522757;23;20010;-84
2023/02/26 01:21:04;;;;;;;2.97;2.33;;;;;;;-3.06;100.00;92228.31;2511644;23;20015;-84
2023/02/26 01:22:22;;;;;;;4.55;2.05;;;;;;;-3.10;100.00;92224.88;2510599;23;20450;-84
2023/02/26 01:23:32;;;;;;;3.35;1.88;;;;;;;-3.26;100.00;92226.88;2524136;23;20013;-86
2023/02/26 01:24:35;;;;;;;4.22;2.00;;;;;;;-3.38;100.00;92229.66;2525113;23;20002;-86
2023/02/26 01:25:46;;;;;;;5.45;2.00;;;;;;;-3.30;100.00;92218.22;2521547;23;20013;-84
2023/02/26 01:26:48;;;;;;;3.35;2.20;;;;;;;-3.30;100.00;92224.19;2523015;23;20004;-84
2023/02/26 01:27:50;;;;;;;3.53;1.70;;;;;;;-3.34;100.00;92223.41;2509740;23;20070;-82
2023/02/26 01:28:52;;;;;;;3.15;1.92;;;;;;;-3.25;100.00;92211.94;2521062;23;20002;-85
2023/02/26 01:29:54;;;;;;;2.45;1.92;;;;;;;-3.28;100.00;92226.47;2521041;23;20100;-84
2023/02/26 01:31:01;;;;;;;3.85;2.10;;;;;;;-3.13;100.00;92220.34;2521119;23;20006;-84
2023/02/26 01:32:07;;;;;;;2.80;1.95;;;;;;;-3.18;100.00;92218.03;2523008;23;20018;-85
2023/02/26 01:33:19;;;;;;;3.47;1.92;;;;;;;-3.07;100.00;92220.81;2521874;23;20017;-83
2023/02/26 01:34:32;;;;;;;5.78;1.95;;;;;;;-3.04;100.00;92217.47;2513314;23;20105;-84
2023/02/26 01:36:08;;;;;;;4.55;2.00;;;;;;;-3.30;100.00;92218.22;2514324;23;20026;-84
2023/02/26 01:37:27;;;;;;;3.70;1.80;;;;;;;-3.30;100.00;92216.38;2479828;23;20018;-84
2023/02/26 01:38:43;;;;;;;6.63;2.00;;;;;;;-3.32;100.00;92215.22;2536735;23;20006;-85
2023/02/26 01:40:31;;;;;;;4.68;2.17;;;;;;;-3.29;100.00;92209.31;2533470;23;20006;-85
2023/02/26 01:42:02;;;;;;;2.90;1.60;;;;;;;-3.21;100.00;92217.97;2531026;23;20002;-84
2023/02/26 01:43:14;;;;;;;3.63;1.77;;;;;;;-3.32;100.00;92228.28;2503763;23;20433;-87
2023/02/26 01:44:47;;;;;;;3.22;2.03;;;;;;;-3.37;100.00;92218.13;2525679;23;20026;-84
2023/02/26 01:46:07;;;;;;;3.28;2.13;;;;;;;-3.29;100.00;92219.75;2527689;23;20449;-84
2023/02/26 01:47:19;;;;;;;2.90;1.85;;;;;;;-3.13;100.00;92215.13;2517165;23;20006;-83
2023/02/26 01:48:48;;;;;;;3.15;1.80;;;;;;;-3.24;100.00;92219.44;2525332;23;20287;-85
2023/02/26 01:49:49;;;;;;;4.72;2.10;;;;;;;-3.27;100.00;92219.41;2532049;23;20774;-84
2023/02/26 01:50:50;;;;;;;2.05;1.73;;;;;;;-3.33;100.00;92216.34;2532980;23;20089;-84
2023/02/26 01:51:53;;;;;;;3.45;2.00;;;;;;;-3.54;100.00;92221.97;2532968;23;20060;-83
2023/02/26 01:53:08;;;;;;;3.60;2.10;;;;;;;-3.47;100.00;92218.72;2521106;23;20006;-85
2023/02/26 01:54:10;;;;;;;4.93;2.10;;;;;;;-3.51;100.00;92216.06;2524025;23;20010;-87
2023/02/26 01:55:12;;;;;;;4.45;2.03;;;;;;;-3.53;100.00;92209.66;2521213;23;20053;-87
2023/02/26 01:56:16;;;;;;;5.05;2.35;;;;;;;-3.38;100.00;92214.78;2521039;23;20006;-86
2023/02/26 01:57:20;;;;;;;4.10;2.00;;;;;;;-3.55;100.00;92221.22;2510640;23;20089;-85
2023/02/26 01:58:23;;;;;;;3.33;1.90;;;;;;;-3.58;100.00;92219.31;2521722;23;20538;-86
2023/02/26 01:59:24;;;;;;;4.30;2.10;;;;;;;-3.65;100.00;92219.19;2521094;23;20010;-85
2023/02/26 02:00:25;;;;;;;3.58;2.05;;;;;;;-3.61;100.00;92217.38;2520861;23;20030;-85
2023/02/26 02:01:26;;;;;;;3.85;1.92;;;;;;;-3.57;100.00;92222.66;2532916;23;20002;-84
2023/02/26 02:02:27;;;;;;;2.58;2.10;;;;;;;-3.53;100.00;92220.13;2520912;23;20002;-85
2023/02/26 02:03:32;;;;;;;3.35;2.00;;;;;;;-3.47;100.00;92227.28;2521270;23;20342;-85
2023/02/26 02:04:33;;;;;;;4.38;2.13;;;;;;;-3.66;100.00;92220.28;2523363;23;20130;-85
2023/02/26 02:05:41;;;;;;;4.35;2.40;;;;;;;-3.63;100.00;92218.84;2530329;23;19991;-84
2023/02/26 02:06:45;;;;;;;3.67;2.15;;;;;;;-3.52;100.00;92219.75;2535483;23;20045;-85
2023/02/26 02:07:46;;;;;;;4.15;2.30;;;;;;;-3.55;100.00;92218.63;2544492;23;20075;-85
2023/02/26 02:08:47;;;;;;;4.03;2.10;;;;;;;-3.55;100.00;92216.00;2526965;23;20006;-84
2023/02/26 02:09:49;;;;;;;2.50;1.90;;;;;;;-3.21;100.00;92216.13;2513934;23;20006;-84
2023/02/26 02:10:51;;;;;;;4.68;2.40;;;;;;;-3.37;100.00;92211.06;2525126;23;20010;-85
2023/02/26 02:12:05;;;;;;;3.40;2.20;;;;;;;-3.62;100.00;92225.56;2523970;23;20002;-87
2023/02/26 02:13:12;;;;;;;3.85;2.20;;;;;;;-3.66;100.00;92227.38;2537204;23;20008;-87
2023/02/26 02:14:30;;;;;;;4.60;1.98;;;;;;;-3.59;100.00;92217.06;2534070;23;20429;-84
2023/02/26 02:15:41;;;;;;;4.88;2.17;;;;;;;-3.63;100.00;92224.81;2529876;23;20330;-86
2023/02/26 02:17:06;;;;;;;4.60;2.13;;;;;;;-3.63;100.00;92222.22;2523735;23;20010;-81
2023/02/26 02:33:16;;;;;;;;;;;;;;;-3.81;100.00;92231.59;2628485;22;20029;-84
2023/02/26 02:34:35;;;;;;;4.30;2.22;;;;;;;-3.87;100.00;92225.16;2611402;22;19957;-84
2023/02/26 02:35:53;;;;;;;3.03;2.28;;;;;;;-3.80;100.00;92223.41;2602384;22;20012;-85
2023/02/26 02:37:00;;;;;;;3.45;2.30;;;;;;;-3.77;100.00;92229.81;2602486;22;20011;-84
2023/02/26 02:38:31;;;;;;;5.57;2.40;;;;;;;-3.70;100.00;92229.16;2599992;22;20087;-84
2023/02/26 02:39:56;;;;;;;4.60;2.40;;;;;;;-3.76;100.00;92230.56;2610761;22;20515;-84
2023/02/26 02:41:22;;;;;;;5.07;2.60;;;;;;;-3.70;100.00;92229.16;2603862;22;20006;-85
2023/02/26 02:42:34;;;;;;;6.25;2.30;;;;;;;-3.77;100.00;92234.28;2608657;22;20283;-84
2023/02/26 02:43:38;;;;;;;4.53;2.60;;;;;;;-3.78;100.00;92225.66;2600997;22;20076;-85
2023/02/26 02:44:46;;;;;;;6.88;2.20;;;;;;;-3.77;100.00;92235.03;2587267;22;20094;-86
2023/02/26 02:46:19;;;;;;;4.75;2.30;;;;;;;-3.76;100.00;92228.72;2601814;22;20004;-82
2023/02/26 02:47:22;;;;;;;4.05;1.90;;;;;;;-3.70;100.00;92235.13;2594317;22;20002;-84
2023/02/26 02:48:29;;;;;;;4.22;2.20;;;;;;;-3.62;100.00;92228.19;2599382;22;20006;-84
2023/02/26 02:49:38;;;;;;;5.13;1.85;;;;;;;-3.72;100.00;92223.56;2600078;22;20299;-86
2023/02/26 02:50:45;;;;;;;4.28;2.25;;;;;;;-3.80;100.00;92222.66;2613242;22;20002;-85
2023/02/26 02:51:58;;;;;;;3.10;2.47;;;;;;;-3.85;100.00;92225.56;2599916;22;20004;-82
2023/02/26 02:53:16;;;;;;;3.47;2.25;;;;;;;-3.80;100.00;92233.09;2603893;22;20007;-84
2023/02/26 02:54:26;;;;;;;6.65;2.42;;;;;;;-3.97;100.00;92230.94;2602244;22;20004;-83
2023/02/26 02:55:36;;;;;;;3.05;1.80;;;;;;;-4.03;100.00;92237.56;2589960;22;20388;-86
2023/02/26 02:56:45;;;;;;;;;;;;;;;-3.94;100.00;92230.25;2614055;22;19995;-83
2023/02/26 02:58:01;;;;;;;3.03;1.90;;;;;;;-3.88;100.00;92228.88;2600400;22;19906;-85
2023/02/26 02:59:23;;;;;;;4.78;2.28;;;;;;;-3.84;100.00;92232.28;2601502;22;20341;-84
2023/02/26 03:00:26;;;;;;;3.97;2.47;;;;;;;-3.92;100.00;92230.66;2602604;22;20030;-85
2023/02/26 03:01:29;;;;;;;3.78;2.10;;;;;;;-4.00;100.00;92239.47;2599305;22;20003;-85
2023/02/26 03:02:54;;;;;;;4.82;2.33;;;;;;;-4.06;100.00;92242.34;2611607;22;20375;-85
2023/02/26 03:04:05;;;;;;;5.53;3.03;;;;;;;-3.99;100.00;92236.53;2616353;22;20006;-85
2023/02/26 03:05:07;;;;;;;3.75;2.25;;;;;;;-3.88;100.00;92229.63;2613373;22;20010;-85
2023/02/26 03:06:08;;;;;;;3.72;2.08;;;;;;;-3.99;100.00;92231.31;2611266;22;20010;-84
2023/02/26 03:07:09;;;;;;;7.03;2.13;;;;;;;-3.96;100.00;92235.06;2598824;22;19999;-83
2023/02/26 03:08:14;;;;;;;5.80;2.38;;;;;;;-3.96;100.00;92233.19;2598611;22;20054;-85
2023/02/26 03:09:15;;;;;;;2.88;2.05;;;;;;;-3.71;100.00;92240.72;2600680;22;19999;-84
2023/02/26 03:10:18;;;;;;;3.72;1.95;;;;;;;-3.91;100.00;92245.22;2598780;22;20725;-85
2023/02/26 03:11:19;;;;;;;5.38;2.20;;;;;;;-3.91;100.00;92242.59;2586243;22;20015;-85
2023/02/26 03:12:21;;;;;;;2.95;2.05;;;;;;;-3.81;100.00;92242.81;2586347;22;20003;-86
2023/02/26 03:13:24;;;;;;;4.32;2.45;;;;;;;-3.73;100.00;92242.91;2585983;22;20068;-83
2023/02/26 03:14:26;;;;;;;3.15;2.10;;;;;;;-3.96;100.00;92241.03;2598863;22;19999;-85
2023/02/26 03:15:51;;;;;;;3.88;2.33;;;;;;;-4.17;100.00;92241.41;2586401;22;20003;-85
2023/02/26 03:17:10;;;;;;;2.35;1.90;;;;;;;-4.03;100.00;92248.75;2595561;22;19999;-86
2023/02/26 03:18:39;;;;;;;3.85;1.90;;;;;;;-4.28;100.00;92245.66;2593547;22;20492;-86
2023/02/26 03:20:03;;;;;;;3.45;2.17;;;;;;;-4.30;100.00;92250.50;2597321;22;20057;-87
2023/02/26 03:21:16;;;;;;;2.25;1.70;;;;;;;-4.25;100.00;92252.06;2594944;22;20007;-85
2023/02/26 03:22:46;;;;;;;5.90;2.20;;;;;;;-4.17;100.00;92259.69;2600773;22;20003;-83
2023/02/26 03:24:15;;;;;;;2.80;2.15;;;;;;;-4.07;100.00;92256.50;2604527;22;20014;-85
2023/02/26 03:25:24;;;;;;;3.45;2.22;;;;;;;-3.99;100.00;92254.03;2572725;23;20012;-84
2023/02/26 03:26:43;;;;;;;5.15;2.20;;;;;;;-4.17;100.00;92251.84;2599869;22;20011;-85
2023/02/26 03:28:08;;;;;;;4.55;2.22;;;;;;;-4.06;100.00;92258.00;2602698;22;20015;-84
2023/02/26 03:29:59;;;;;;;4.38;2.10;;;;;;;-4.31;100.00;92262.00;2586248;22;20003;-85
2023/02/26 03:31:02;;;;;;;2.88;2.00;;;;;;;-4.20;100.00;92260.38;2559408;23;20016;-88
2023/02/26 03:32:15;;;;;;;4.18;2.28;;;;;;;-4.29;100.00;92261.69;2595966;22;20003;-84
2023/02/26 03:33:21;;;;;;;2.83;2.20;;;;;;;-4.16;100.00;92274.22;2600394;22;20016;-83
2023/02/26 03:34:59;;;;;;;5.80;2.63;;;;;;;-4.15;100.00;92269.78;2596738;22;20008;-87
2023/02/26 03:36:10;;;;;;;3.85;1.88;;;;;;;-4.00;100.00;92260.34;2597964;22;20089;-83
2023/02/26 03:37:26;;;;;;;5.43;2.40;;;;;;;-4.23;100.00;92266.25;2587281;22;20423;-84
2023/02/26 03:38:39;;;;;;;3.72;2.03;;;;;;;-4.18;100.00;92260.00;2601769;22;20360;-86
2023/02/26 03:39:45;;;;;;;4.32;2.15;;;;;;;-4.26;100.00;92268.78;2597983;22;20004;-87
2023/02/26 03:41:10;;;;;;;3.22;2.22;;;;;;;-4.05;100.00;92269.19;2596651;22;20073;-82
2023/02/26 03:42:43;;;;;;;6.03;2.10;;;;;;;-4.15;100.00;92272.38;2592819;22;20010;-86
2023/02/26 03:43:51;;;;;;;5.55;2.30;;;;;;;-4.10;100.00;92267.63;2596077;22;20465;-85
2023/02/26 03:45:06;;;;;;;2.85;1.90;;;;;;;-4.07;100.00;92274.03;2598250;22;20016;-86
2023/02/26 03:46:14;;;;;;;6.43;2.30;;;;;;;-4.19;100.00;92271.56;2598441;22;20404;-87
2023/02/26 03:47:15;;;;;;;5.03;2.60;;;;;;;-4.05;100.00;92277.78;2585561;22;20011;-83
2023/02/26 03:48:22;;;;;;;8.77;2.33;;;;;;;-3.98;100.00;92276.41;2582784;22;20028;-84
2023/02/26 03:49:31;;;;;;;8.77;3.00;;;;;;;-4.02;100.00;92275.59;2585313;22;20027;-85
2023/02/26 03:50:51;;;;;;;5.18;2.40;;;;;;;-4.08;100.00;92275.13;2597724;22;20000;-85
2023/02/26 03:51:53;;;;;;;7.53;2.50;;;;;;;-4.13;100.00;92270.91;2603281;22;20031;-84
2023/02/26 03:52:56;;;;;;;4.10;2.00;;;;;;;-4.10;100.00;92275.47;2595638;22;20013;-84
2023/02/26 03:54:06;;;;;;;4.90;1.90;;;;;;;-4.05;100.00;92277.03;2609075;22;20003;-86
2023/02/26 03:55:11;;;;;;;5.40;2.42;;;;;;;-4.10;100.00;92274.69;2608253;22;20003;-84
2023/02/26 03:56:33;;;;;;;3.05;2.20;;;;;;;-4.02;100.00;92275.59;2584589;22;20081;-87
2023/02/26 03:57:35;;;;;;;4.10;2.20;;;;;;;-3.96;100.00;92269.00;2591526;22;20049;-85
2023/02/26 03:58:36;;;;;;;3.70;2.40;;;;;;;-3.91;100.00;92276.53;2595564;22;19999;-86
2023/02/26 03:59:37;;;;;;;7.53;2.20;;;;;;;-3.98;100.00;92269.34;2595228;22;20007;-85
2023/02/26 04:00:42;;;;;;;6.38;2.17;;;;;;;-3.87;100.00;92283.31;2582918;22;20004;-84
2023/02/26 04:02:00;;;;;;;5.43;2.00;;;;;;;-3.66;100.00;92280.34;2584263;22;20007;-85
2023/02/26 04:03:11;;;;;;;2.85;1.65;;;;;;;-4.02;100.00;92286.03;2590095;22;20039;-86
2023/02/26 04:04:29;;;;;;;3.47;2.08;;;;;;;-4.00;100.00;92278.59;2611489;22;20019;-84
2023/02/26 04:05:38;;;;;;;7.05;2.30;;;;;;;-4.10;100.00;92282.53;2609835;22;20007;-84
2023/02/26 04:06:40;;;;;;;6.13;2.58;;;;;;;-4.10;100.00;92279.91;2597927;22;20010;-85
2023/02/26 04:07:41;;;;;;;3.08;2.13;;;;;;;-4.33;100.00;92283.22;2584504;22;20014;-84
2023/02/26 04:08:43;;;;;;;6.88;2.60;;;;;;;-4.26;100.00;92284.44;2596294;22;20007;-84
2023/02/26 04:09:50;;;;;;;4.80;2.15;;;;;;;-4.08;100.00;92281.09;2583640;22;20657;-83
2023/02/26 04:11:03;;;;;;;5.10;2.58;;;;;;;-3.92;100.00;92280.25;2599079;22;20423;-83
2023/02/26 04:12:04;;;;;;;4.18;2.08;;;;;;;-4.06;100.00;92281.50;2609472;22;20311;-83
2023/02/26 04:13:06;;;;;;;5.50;2.22;;;;;;;-4.28;100.00;92294.47;2598133;22;20045;-84
2023/02/26 04:14:07;;;;;;;3.28;2.33;;;;;;;-4.22;100.00;92295.72;2597367;22;20010;-86
2023/02/26 04:15:08;;;;;;;3.97;2.22;;;;;;;-4.27;100.00;92288.91;2585774;22;20004;-84
2023/02/26 04:16:25;;;;;;;5.13;2.90;;;;;;;-3.96;100.00;92290.63;2584577;22;20007;-85
2023/02/26 04:17:26;;;;;;;2.67;2.13;;;;;;;-4.20;100.00;92288.31;2591757;22;20007;-84
2023/02/26 04:18:27;;;;;;;3.47;2.10;;;;;;;-4.18;100.00;92293.94;2598266;22;20011;-83
2023/02/26 04:19:28;;;;;;;4.57;2.13;;;;;;;-4.20;100.00;92290.91;2597841;22;20003;-86
2023/02/26 04:20:29;;;;;;;2.80;2.00;;;;;;;-4.35;100.00;92292.47;2585046;22;20000;-84
2023/02/26 04:21:30;;;;;;;6.65;2.72;;;;;;;-4.55;100.00;92291.72;2597070;22;20015;-86
2023/02/26 04:22:30;;;;;;;5.35;2.22;;;;;;;-4.44;100.00;92299.75;2598112;22;20043;-84
2023/02/26 04:23:31;;;;;;;5.90;2.40;;;;;;;-4.45;100.00;92303.44;2585565;22;20043;-85
2023/02/26 04:24:33;;;;;;;3.55;2.50;;;;;;;-4.47;100.00;92297.84;2598481;22;20000;-84
2023/02/26 04:25:34;;;;;;;3.17;1.85;;;;;;;-4.33;100.00;92308.56;2597252;22;20461;-82
2023/02/26 04:26:35;;;;;;;5.95;2.53;;;;;;;-4.42;100.00;92300.16;2585658;22;20011;-86
2023/02/26 04:27:36;;;;;;;3.63;1.70;;;;;;;-4.29;100.00;92291.13;2598323;22;20000;-86
2023/02/26 04:28:37;;;;;;;3.53;2.05;;;;;;;-4.31;100.00;92299.28;2597531;22;20422;-84
2023/02/26 04:29:38;;;;;;;3.83;2.15;;;;;;;-4.21;100.00;92297.25;2596111;22;20442;-87
2023/02/26 04:30:39;;;;;;;4.47;2.05;;;;;;;-4.19;100.00;92295.78;2595872;22;20003;-84
2023/02/26 04:31:40;;;;;;;3.33;1.90;;;;;;;-4.09;100.00;92303.06;2583249;22;20083;-86
2023/02/26 04:32:41;;;;;;;4.53;2.17;;;;;;;-4.18;100.00;92299.91;2596598;22;20098;-86
2023/02/26 04:33:42;;;;;;;3.35;1.83;;;;;;;-4.21;100.00;92303.22;2597299;22;20008;-86
2023/02/26 04:34:43;;;;;;;3.40;2.10;;;;;;;-4.03;100.00;92295.72;2597518;22;20008;-88
2023/02/26 04:35:45;;;;;;;8.80;2.20;;;;;;;-4.14;100.00;92295.50;2597965;22;20003;-86
2023/02/26 04:37:04;;;;;;;7.28;2.78;;;;;;;-4.20;100.00;92294.28;2584097;22;20004;-86
2023/02/26 04:38:05;;;;;;;4.47;2.27;;;;;;;-4.09;100.00;92302.31;2592591;22;20006;-84
2023/02/26 04:39:09;;;;;;;2.72;1.90;;;;;;;-4.13;100.00;92298.88;2584154;22;20423;-84
2023/02/26 04:40:10;;;;;;;2.80;1.90;;;;;;;-4.08;100.00;92298.63;2597536;22;20045;-84
2023/02/26 04:41:12;;;;;;;3.33;1.52;;;;;;;-4.12;100.00;92293.31;2622072;22;20001;-86
2023/02/26 04:42:13;;;;;;;4.65;1.63;;;;;;;-4.41;100.00;92307.66;2595384;22;20006;-86
2023/02/26 04:43:14;;;;;;;4.57;1.65;;;;;;;-4.36;100.00;92304.00;2595548;22;20011;-86
2023/02/26 04:44:15;;;;;;;4.50;1.95;;;;;;;-4.31;100.00;92295.91;2595820;22;20053;-85
2023/02/26 04:45:16;;;;;;;2.60;1.50;;;;;;;-4.44;100.00;92303.09;2608733;22;20057;-83
2023/02/26 04:46:16;;;;;;;6.82;1.70;;;;;;;-4.50;100.00;92303.72;2596721;22;20003;-83
2023/02/26 04:47:17;;;;;;;4.38;1.70;;;;;;;-4.43;100.00;92311.72;2584376;22;20011;-84
2023/02/26 04:48:19;;;;;;;4.75;1.73;;;;;;;-4.61;100.00;92303.50;2596760;22;20042;-87
2023/02/26 04:49:20;;;;;;;3.67;1.70;;;;;;;-4.66;100.00;92304.50;2597629;22;20003;-85
2023/02/26 04:50:21;;;;;;;4.65;1.83;;;;;;;-4.71;100.00;92307.38;2608729;22;20311;-87
2023/02/26 04:51:22;;;;;;;4.63;1.77;;;;;;;-4.64;100.00;92312.00;2596836;22;20011;-86
2023/02/26 04:52:23;;;;;;;4.68;1.90;;;;;;;-4.61;100.00;92306.09;2598954;22;20336;-85
2023/02/26 04:53:24;;;;;;;4.40;1.77;;;;;;;-4.58;100.00;92306.19;2607976;22;20012;-82
2023/02/26 04:54:25;;;;;;;5.38;2.10;;;;;;;-4.51;100.00;92312.66;2607822;22;20006;-85
2023/02/26 04:55:26;;;;;;;4.63;1.77;;;;;;;-4.38;100.00;92312.19;2607779;22;20015;-86
2023/02/26 04:56:28;;;;;;;2.85;1.50;;;;;;;-4.47;100.00;92308.28;2587980;22;20004;-85
2023/02/26 04:57:30;;;;;;;8.15;1.98;;;;;;;-4.29;100.00;92300.81;2589508;22;20067;-85
2023/02/26 04:58:31;;;;;;;4.43;1.90;;;;;;;-4.29;100.00;92303.41;2588803;22;20000;-85
2023/02/26 04:59:32;;;;;;;3.63;1.70;;;;;;;-4.44;100.00;92310.94;2598452;22;20019;-87
2023/02/26 05:00:33;;;;;;;5.05;1.90;;;;;;;-4.62;100.00;92301.97;2597683;22;20029;-83
2023/02/26 05:01:34;;;;;;;4.00;1.50;;;;;;;-4.70;100.00;92306.28;2611849;22;20086;-86
2023/02/26 05:02:36;;;;;;;5.32;1.95;;;;;;;-4.69;100.00;92305.22;2600639;22;20014;-84
2023/02/26 05:03:36;;;;;;;3.80;1.52;;;;;;;-4.59;100.00;92303.91;2585682;22;20440;-84
2023/02/26 05:04:37;;;;;;;2.47;1.55;;;;;;;-4.49;100.00;92305.22;2583222;22;20000;-85
2023/02/26 05:05:38;;;;;;;3.05;2.13;;;;;;;-4.18;100.00;92310.34;2595962;22;20038;-85
2023/02/26 05:06:39;;;;;;;4.93;1.60;;;;;;;-4.30;100.00;92305.28;2608630;22;20384;-83
2023/02/26 05:07:40;;;;;;;4.32;1.77;;;;;;;-4.49;100.00;92307.84;2595716;22;19999;-84
2023/02/26 05:08:41;;;;;;;5.78;1.92;;;;;;;-4.37;100.00;92312.94;2608555;22;20046;-86
2023/02/26 05:09:42;;;;;;;7.20;3.72;;;;;;;-4.52;100.00;92314.50;2608415;22;20003;-82
2023/02/26 05:10:44;;;;;;;3.15;1.80;;;;;;;-4.57;100.00;92314.75;2582835;22;20317;-85
2023/02/26 05:11:46;;;;;;;4.72;1.80;;;;;;;-4.52;100.00;92306.69;2596305;22;20417;-88
2023/02/26 05:12:47;;;;;;;4.68;1.83;;;;;;;-4.63;100.00;92309.06;2608668;22;20082;-87
2023/02/26 05:13:49;;;;;;;1.95;1.40;;;;;;;-4.59;100.00;92311.75;2608444;22;20003;-84
2023/02/26 05:14:49;;;;;;;5.47;1.95;;;;;;;-4.66;100.00;92314.19;2608182;22;20003;-87
2023/02/26 05:15:52;;;;;;;6.45;2.35;;;;;;;-4.74;100.00;92310.69;2595750;22;20007;-84
2023/02/26 05:16:53;;;;;;;5.18;2.05;;;;;;;-4.84;100.00;92313.81;2609021;22;20436;-84
2023/02/26 05:17:54;;;;;;;4.07;1.73;;;;;;;-4.89;100.00;92314.81;2595600;22;20007;-85
2023/02/26 05:18:55;;;;;;;4.30;1.90;;;;;;;-4.87;100.00;92312.66;2595347;22;20000;-84
2023/02/26 05:19:56;;;;;;;5.15;1.88;;;;;;;-4.94;100.00;92309.88;2595248;22;20454;-83
2023/02/26 05:20:58;;;;;;;3.70;1.70;;;;;;;-4.90;100.00;92313.31;2582511;22;20004;-84
2023/02/26 05:21:58;;;;;;;2.17;1.90;;;;;;;-4.88;100.00;92312.97;2608733;22;20006;-84
2023/02/26 05:22:59;;;;;;;2.30;1.67;;;;;;;-4.96;100.00;92312.06;2609017;22;20003;-84
2023/02/26 05:24:00;;;;;;;4.25;2.00;;;;;;;-5.01;100.00;92312.31;2583364;22;20000;-84
2023/02/26 05:25:02;;;;;;;2.70;1.88;;;;;;;-4.93;100.00;92318.44;2582997;22;20351;-87
2023/02/26 05:26:03;;;;;;;4.25;1.80;;;;;;;-4.93;100.00;92316.59;2582533;22;20011;-84
2023/02/26 05:27:04;;;;;;;10.07;2.05;;;;;;;-4.90;100.00;92318.53;2595293;22;20003;-83
2023/02/26 05:28:05;;;;;;;2.85;1.58;;;;;;;-4.98;100.00;92318.69;2595430;22;20000;-85